Time;durP1;ratioP1;P1;durP2;ratioP2;P2;SDS_P1;SDS_P2;PMS_P1;PMS_P2;Temp;Humidity;BMP_temperature;BMP_pressure;BME280_temperature;BME280_humidity;BME280_pressure;Samples;Min_cycle;Max_cycle;Signal;HPM_P1;HPM_P2
2022/05/18 00:00:17;;;;;;;8.07;2.40;;;16.10;91.20;;;;;;5112049;28;20434;-49
2022/05/18 00:02:42;;;;;;;8.45;2.33;;;16.00;91.30;;;;;;5111989;28;20047;-48
2022/05/18 00:05:09;;;;;;;5.50;2.30;;;15.90;91.40;;;;;;5099116;28;20024;-55
2022/05/18 00:07:35;;;;;;;7.95;2.60;;;15.90;91.50;;;;;;5091592;28;20058;-51
2022/05/18 00:10:00;;;;;;;5.80;2.45;;;15.80;91.50;;;;;;5091544;28;20024;-57
2022/05/18 00:12:26;;;;;;;6.32;2.28;;;15.70;91.60;;;;;;5091554;28;20032;-56
2022/05/18 00:14:52;;;;;;;7.53;2.38;;;15.70;91.70;;;;;;5101575;28;20055;-60
2022/05/18 00:17:18;;;;;;;8.05;2.30;;;15.70;91.70;;;;;;5112001;28;20028;-58
2022/05/18 00:19:44;;;;;;;4.57;2.00;;;15.60;91.70;;;;;;5110474;28;20381;-53
2022/05/18 00:22:10;;;;;;;9.60;2.95;;;15.50;91.90;;;;;;5111664;28;20035;-50
2022/05/18 00:24:36;;;;;;;7.50;2.47;;;15.40;91.90;;;;;;5103667;28;20096;-52
2022/05/18 00:27:03;;;;;;;9.77;2.40;;;15.40;92.00;;;;;;5091241;28;20028;-50
2022/05/18 00:29:30;;;;;;;6.82;1.90;;;15.30;92.10;;;;;;5091277;28;20074;-48
2022/05/18 00:31:56;;;;;;;8.25;2.75;;;15.20;92.10;;;;;;5091226;28;20473;-46
2022/05/18 00:34:22;;;;;;;8.13;2.70;;;15.20;92.10;;;;;;5095540;28;20023;-58
2022/05/18 00:36:47;;;;;;;5.40;1.83;;;15.20;92.10;;;;;;5111016;28;20044;-52
2022/05/18 00:39:13;;;;;;;7.88;2.17;;;15.10;91.90;;;;;;5111666;28;20031;-56
2022/05/18 00:41:39;;;;;;;6.18;1.85;;;15.10;91.90;;;;;;5110104;28;20048;-57
2022/05/18 00:44:05;;;;;;;6.45;1.90;;;15.10;91.90;;;;;;5108066;28;20095;-48
2022/05/18 00:46:31;;;;;;;6.43;2.08;;;15.00;91.90;;;;;;5091232;28;20398;-53
2022/05/18 00:48:57;;;;;;;4.95;2.00;;;15.00;91.80;;;;;;5091181;28;20016;-53
2022/05/18 00:51:44;;;;;;;6.10;1.70;;;15.00;91.90;;;;;;5092001;28;20035;-54
2022/05/18 00:54:18;;;;;;;5.43;1.67;;;14.90;91.60;;;;;;5098505;28;20015;-53
2022/05/18 00:56:53;;;;;;;5.07;1.58;;;14.90;91.60;;;;;;5115635;28;20024;-55
2022/05/18 00:59:23;;;;;;;4.95;1.73;;;14.80;91.50;;;;;;5114173;28;20023;-49
2022/05/18 01:01:51;;;;;;;5.88;2.17;;;14.80;91.60;;;;;;5114177;28;20036;-48
2022/05/18 01:04:17;;;;;;;6.88;1.60;;;14.80;91.60;;;;;;5110630;28;20481;-57
2022/05/18 01:06:54;;;;;;;7.47;1.75;;;14.70;91.60;;;;;;5094575;28;20438;-54
2022/05/18 01:09:34;;;;;;;4.72;1.65;;;14.70;91.70;;;;;;5094907;28;20028;-42
2022/05/18 01:12:00;;;;;;;6.47;1.73;;;14.70;91.70;;;;;;5095105;28;20028;-51
2022/05/18 01:14:43;;;;;;;3.30;1.55;;;14.60;91.70;;;;;;5099882;28;20028;-51
2022/05/18 01:17:11;;;;;;;6.78;1.50;;;14.60;91.90;;;;;;5115070;28;20459;-52
2022/05/18 01:19:38;;;;;;;4.75;1.40;;;14.50;91.80;;;;;;5115194;28;20062;-50
2022/05/18 01:22:16;;;;;;;6.60;2.13;;;14.50;91.80;;;;;;5115106;28;20038;-48
2022/05/18 01:25:10;;;;;;;5.30;1.55;;;14.50;91.70;;;;;;5107463;28;20023;-53
2022/05/18 01:27:36;;;;;;;3.85;1.30;;;14.50;91.70;;;;;;5072987;28;20044;-55
2022/05/18 01:30:04;;;;;;;2.03;1.20;;;14.40;91.60;;;;;;5094599;28;20027;-51
2022/05/18 01:32:48;;;;;;;2.67;1.30;;;14.30;91.60;;;;;;5094766;28;20047;-50
2022/05/18 01:35:17;;;;;;;3.45;1.40;;;14.30;91.60;;;;;;5105896;28;20069;-50
2022/05/18 01:37:43;;;;;;;4.78;1.40;;;14.20;91.60;;;;;;5114653;27;20043;-51
2022/05/18 01:40:19;;;;;;;5.60;1.90;;;14.10;91.60;;;;;;5114823;28;20039;-50
2022/05/18 01:42:49;;;;;;;5.78;1.30;;;14.10;91.70;;;;;;5114738;28;20476;-57
2022/05/18 01:45:15;;;;;;;;;;;14.00;91.80;;;;;;5103336;28;20024;-55
2022/05/18 01:47:41;;;;;;;3.78;1.20;;;14.00;91.80;;;;;;5094215;28;20052;-61
2022/05/18 01:50:12;;;;;;;3.38;1.33;;;14.00;91.80;;;;;;5093040;28;20377;-57
2022/05/18 01:52:38;;;;;;;4.55;1.40;;;14.00;91.80;;;;;;5094197;28;20024;-55
2022/05/18 01:55:05;;;;;;;4.15;1.23;;;13.90;91.80;;;;;;5093838;28;20030;-54
2022/05/18 01:57:32;;;;;;;6.53;1.42;;;13.90;91.80;;;;;;5094024;28;20052;-45
2022/05/18 01:59:58;;;;;;;4.30;1.40;;;13.90;91.70;;;;;;5093956;28;20034;-47
2022/05/18 02:02:24;;;;;;;3.03;1.33;;;13.90;91.80;;;;;;5093395;28;20107;-51
2022/05/18 02:04:50;;;;;;;3.33;1.40;;;13.80;91.80;;;;;;5100590;28;20102;-52
2022/05/18 02:07:16;;;;;;;3.10;1.33;;;13.80;91.80;;;;;;5114283;28;20115;-56
2022/05/18 02:09:42;;;;;;;3.17;1.30;;;13.80;91.80;;;;;;5114278;28;20023;-54
2022/05/18 02:12:11;;;;;;;3.28;1.33;;;13.70;91.80;;;;;;5114359;28;20113;-53
2022/05/18 02:14:37;;;;;;;4.07;1.45;;;13.70;91.90;;;;;;5108532;28;20012;-58
2022/05/18 02:17:03;;;;;;;3.95;1.42;;;13.60;92.00;;;;;;5093704;28;20585;-53
2022/05/18 02:19:29;;;;;;;5.43;1.90;;;13.60;92.10;;;;;;5093526;28;20024;-49
2022/05/18 02:21:55;;;;;;;5.10;1.40;;;13.60;92.10;;;;;;5093601;28;20042;-52
2022/05/18 02:24:21;;;;;;;3.70;1.20;;;13.60;92.10;;;;;;5096605;28;20054;-56
2022/05/18 02:26:47;;;;;;;5.07;1.65;;;13.50;92.10;;;;;;5114071;28;20042;-55
2022/05/18 02:29:12;;;;;;;4.00;1.30;;;13.50;92.10;;;;;;5113811;28;20020;-54
2022/05/18 02:31:39;;;;;;;5.07;1.40;;;13.40;92.00;;;;;;5113814;28;20094;-50
2022/05/18 02:34:04;;;;;;;3.40;1.30;;;13.40;92.00;;;;;;5113141;28;20032;-53
2022/05/18 02:36:30;;;;;;;4.38;1.20;;;13.30;92.10;;;;;;5110777;28;20039;-55
2022/05/18 02:38:56;;;;;;;4.10;1.40;;;13.30;92.20;;;;;;5113423;28;20059;-45
2022/05/18 02:41:22;;;;;;;3.45;1.30;;;13.30;91.90;;;;;;5113740;28;20047;-57
2022/05/18 02:43:48;;;;;;;3.15;1.38;;;13.20;92.20;;;;;;5113354;28;20361;-48
2022/05/18 02:46:19;;;;;;;7.60;1.60;;;13.10;92.30;;;;;;5098270;28;20028;-56
2022/05/18 02:48:45;;;;;;;4.72;1.60;;;13.10;92.30;;;;;;5093776;27;20024;-41
2022/05/18 02:51:13;;;;;;;5.30;1.42;;;13.00;92.50;;;;;;5093013;28;20074;-53
2022/05/18 02:53:39;;;;;;;6.43;1.95;;;13.00;92.70;;;;;;5093284;28;20028;-54
2022/05/18 02:56:07;;;;;;;3.17;1.20;;;13.00;92.80;;;;;;5080419;28;20435;-57
2022/05/18 02:58:42;;;;;;;6.25;1.90;;;13.00;92.70;;;;;;5071285;28;20075;-59
2022/05/18 03:01:10;;;;;;;3.42;1.38;;;13.00;92.70;;;;;;5072539;28;20024;-50
2022/05/18 03:03:36;;;;;;;5.57;1.65;;;13.00;92.80;;;;;;5072915;28;20086;-60
2022/05/18 03:06:04;;;;;;;3.05;1.48;;;13.00;92.80;;;;;;5097379;28;20030;-58
2022/05/18 03:08:34;;;;;;;4.53;1.73;;;13.00;92.80;;;;;;5113431;28;20110;-44
2022/05/18 03:11:01;;;;;;;2.85;1.30;;;13.00;92.70;;;;;;5113167;28;20020;-47
2022/05/18 03:13:27;;;;;;;3.78;1.40;;;13.00;92.50;;;;;;5113143;28;20090;-47
2022/05/18 03:15:52;;;;;;;6.70;1.33;;;12.90;92.40;;;;;;5101610;28;20138;-41
2022/05/18 03:18:18;;;;;;;4.45;1.42;;;12.90;92.50;;;;;;5091417;28;20024;-40
2022/05/18 03:23:34;;;;;;;2.95;1.33;;;12.80;92.60;;;;;;5092332;28;20074;-47
2022/05/18 03:26:04;;;;;;;4.13;1.52;;;12.80;92.70;;;;;;5103183;28;20031;-47
2022/05/18 03:28:29;;;;;;;;;;;12.80;92.80;;;;;;5113171;28;20059;-52
2022/05/18 03:30:55;;;;;;;2.53;1.38;;;12.70;92.70;;;;;;5112725;28;19913;-49
2022/05/18 03:33:22;;;;;;;3.28;1.40;;;12.70;92.80;;;;;;5112776;28;20028;-48
2022/05/18 03:35:49;;;;;;;6.28;1.90;;;12.70;92.80;;;;;;5111071;28;20059;-55
2022/05/18 03:38:16;;;;;;;5.38;1.30;;;12.70;92.80;;;;;;5099475;28;20084;-45
2022/05/18 03:40:42;;;;;;;3.53;1.60;;;12.60;93.00;;;;;;5108301;28;20077;-40
2022/05/18 03:43:08;;;;;;;6.15;1.70;;;12.60;93.00;;;;;;5111151;28;20086;-40
2022/05/18 03:45:34;;;;;;;4.53;1.60;;;12.60;93.00;;;;;;5105378;27;20024;-40
2022/05/18 03:48:00;;;;;;;3.75;1.38;;;12.60;93.00;;;;;;5091829;28;20043;-40
2022/05/18 03:50:28;;;;;;;3.83;1.80;;;12.60;92.70;;;;;;5090522;28;20020;-40
2022/05/18 03:52:55;;;;;;;6.28;1.75;;;12.50;92.60;;;;;;5091745;28;20494;-45
2022/05/18 03:55:21;;;;;;;4.30;1.88;;;12.50;92.70;;;;;;5096082;28;20023;-50
2022/05/18 03:57:47;;;;;;;5.97;1.92;;;12.40;92.80;;;;;;5112124;28;20424;-49
2022/05/18 04:00:13;;;;;;;4.22;1.58;;;12.40;92.80;;;;;;5112038;28;20030;-57
2022/05/18 04:02:40;;;;;;;4.72;2.00;;;12.40;92.80;;;;;;5111969;28;20532;-47
2022/05/18 04:05:07;;;;;;;4.60;1.58;;;12.40;93.00;;;;;;5109400;28;20706;-46
2022/05/18 04:07:33;;;;;;;4.45;2.00;;;12.30;93.20;;;;;;5111796;28;20036;-51
2022/05/18 04:10:00;;;;;;;8.13;1.98;;;12.30;93.20;;;;;;5111899;28;20031;-51
2022/05/18 04:12:27;;;;;;;2.90;1.70;;;12.30;93.30;;;;;;5111815;28;20031;-55
2022/05/18 04:14:54;;;;;;;6.25;1.77;;;12.30;93.20;;;;;;5111483;28;20502;-46
2022/05/18 04:17:21;;;;;;;7.40;1.77;;;12.30;93.10;;;;;;5071108;28;20024;-50
2022/05/18 04:19:46;;;;;;;5.63;1.95;;;12.30;93.00;;;;;;5095353;28;20383;-53
2022/05/18 04:22:12;;;;;;;5.85;1.80;;;12.30;92.90;;;;;;5111664;28;20127;-53
2022/05/18 04:24:38;;;;;;;5.25;1.80;;;12.20;92.80;;;;;;5104461;28;20484;-58
2022/05/18 04:27:06;;;;;;;6.32;2.13;;;12.20;92.90;;;;;;5101440;28;20031;-48
2022/05/18 04:29:32;;;;;;;4.70;1.95;;;12.10;93.00;;;;;;5111745;28;20028;-49
2022/05/18 04:31:58;;;;;;;4.88;2.00;;;12.10;93.30;;;;;;5111556;28;20119;-57
2022/05/18 04:34:25;;;;;;;7.53;2.15;;;12.10;93.50;;;;;;5111607;28;20769;-40
2022/05/18 04:36:51;;;;;;;6.10;2.10;;;12.10;93.70;;;;;;5100696;28;20028;-52
2022/05/18 04:39:17;;;;;;;5.80;1.98;;;12.20;93.30;;;;;;5091238;28;20039;-51
2022/05/18 04:41:42;;;;;;;3.05;1.40;;;12.20;93.10;;;;;;5091038;28;20368;-55
2022/05/18 04:44:08;;;;;;;3.00;1.60;;;12.20;92.90;;;;;;5091061;28;20035;-57
2022/05/18 04:46:34;;;;;;;4.53;1.60;;;12.20;92.80;;;;;;5086767;28;20031;-50
2022/05/18 04:49:00;;;;;;;6.85;2.35;;;12.30;92.90;;;;;;5078909;28;20039;-45
2022/05/18 04:51:26;;;;;;;7.00;2.55;;;12.20;92.90;;;;;;5090701;28;20031;-49
2022/05/18 04:53:51;;;;;;;5.03;2.22;;;12.30;93.00;;;;;;5083810;28;20024;-54
2022/05/18 04:56:18;;;;;;;5.68;2.50;;;12.30;93.00;;;;;;5087004;28;20112;-43
2022/05/18 04:58:44;;;;;;;6.13;2.58;;;12.20;93.20;;;;;;5087677;28;20032;-50
2022/05/18 05:01:10;;;;;;;6.40;1.98;;;12.30;93.50;;;;;;5085786;28;20041;-48
2022/05/18 05:03:37;;;;;;;4.90;1.88;;;12.30;93.40;;;;;;5071859;28;20024;-53
2022/05/18 05:06:04;;;;;;;3.85;1.77;;;12.30;93.10;;;;;;5082010;28;20054;-54
2022/05/18 05:08:31;;;;;;;4.20;1.73;;;12.40;93.00;;;;;;5088576;28;20024;-57
2022/05/18 05:10:56;;;;;;;3.80;1.80;;;12.50;92.80;;;;;;5084558;28;20032;-53
2022/05/18 05:13:22;;;;;;;5.88;2.22;;;12.50;92.80;;;;;;5089529;28;20020;-54
2022/05/18 05:15:51;;;;;;;5.65;2.30;;;12.60;92.90;;;;;;5086473;28;20107;-48
2022/05/18 05:18:17;;;;;;;2.80;1.50;;;12.50;92.70;;;;;;5086881;28;20535;-45
2022/05/18 05:20:43;;;;;;;4.32;1.65;;;12.50;92.40;;;;;;5080429;28;20020;-56
2022/05/18 05:23:09;;;;;;;5.07;1.83;;;12.50;92.70;;;;;;5084790;28;20043;-56
2022/05/18 05:25:35;;;;;;;7.00;2.08;;;12.50;92.70;;;;;;5084159;28;20027;-57
2022/05/18 05:28:00;;;;;;;5.05;1.88;;;12.50;93.10;;;;;;5094577;28;20396;-57
2022/05/18 05:30:27;;;;;;;7.65;2.83;;;12.60;93.20;;;;;;5090816;28;20035;-54
2022/05/18 05:32:52;;;;;;;7.88;2.72;;;12.70;93.30;;;;;;5079034;28;20032;-50
2022/05/18 05:35:18;;;;;;;7.22;2.70;;;12.90;93.30;;;;;;5070405;28;20024;-52
2022/05/18 05:37:44;;;;;;;7.72;2.90;;;13.10;93.10;;;;;;5102583;28;20408;-50
2022/05/18 05:40:10;;;;;;;10.77;3.42;;;13.30;93.10;;;;;;5114944;28;20160;-52
2022/05/18 05:42:37;;;;;;;8.48;2.78;;;13.50;92.90;;;;;;5114382;28;20114;-50
2022/05/18 05:45:04;;;;;;;7.53;2.88;;;13.90;92.40;;;;;;5115026;28;20533;-55
2022/05/18 05:47:30;;;;;;;7.45;2.25;;;14.20;92.20;;;;;;5097111;28;20745;-50
2022/05/18 05:49:55;;;;;;;9.02;3.13;;;14.60;91.60;;;;;;5079747;28;20027;-51
2022/05/18 05:52:21;;;;;;;4.85;2.30;;;15.20;89.50;;;;;;5083766;28;20032;-43
2022/05/18 05:54:47;;;;;;;6.35;2.53;;;16.40;85.40;;;;;;5094165;28;20016;-55
2022/05/18 05:57:12;;;;;;;7.15;2.40;;;17.70;79.90;;;;;;5104523;28;20030;-49
2022/05/18 05:59:38;;;;;;;8.63;2.42;;;18.70;74.10;;;;;;5096897;28;20035;-55
2022/05/18 06:02:08;;;;;;;9.32;3.20;;;20.00;70.80;;;;;;5084368;28;20040;-57
2022/05/18 06:04:36;;;;;;;6.15;2.55;;;21.10;65.30;;;;;;5092495;28;20059;-57
2022/05/18 06:07:01;;;;;;;7.57;2.80;;;22.00;63.00;;;;;;5077200;28;20029;-49
2022/05/18 06:09:27;;;;;;;5.88;2.72;;;22.70;60.10;;;;;;5082694;28;20047;-44
2022/05/18 06:11:53;;;;;;;5.35;2.65;;;23.20;57.90;;;;;;5091369;28;20019;-52
2022/05/18 06:14:19;;;;;;;8.43;3.00;;;23.90;55.80;;;;;;5091703;28;20016;-44
2022/05/18 06:16:49;;;;;;;9.23;3.13;;;24.20;54.90;;;;;;5091977;28;20029;-42
2022/05/18 06:19:16;;;;;;;6.97;2.60;;;24.60;56.50;;;;;;5093605;28;20024;-49
2022/05/18 06:21:42;;;;;;;7.22;2.72;;;24.90;54.00;;;;;;5093629;28;20063;-57
2022/05/18 06:24:08;;;;;;;5.15;2.20;;;25.10;52.10;;;;;;5093484;28;20028;-53
2022/05/18 06:26:34;;;;;;;9.13;2.65;;;25.20;52.60;;;;;;5093756;28;20048;-48
2022/05/18 06:29:00;;;;;;;6.53;2.55;;;25.30;50.70;;;;;;5092595;28;20605;-53
2022/05/18 06:31:26;;;;;;;9.60;2.50;;;25.30;50.80;;;;;;5091377;28;20463;-51
2022/05/18 06:33:51;;;;;;;5.22;2.40;;;25.30;51.90;;;;;;5091410;28;20024;-53
2022/05/18 06:36:17;;;;;;;6.35;2.20;;;25.30;49.80;;;;;;5091641;28;20111;-51
2022/05/18 06:38:43;;;;;;;5.68;2.40;;;25.40;50.10;;;;;;5091224;28;20117;-42
2022/05/18 06:41:23;;;;;;;5.20;2.20;;;25.60;49.40;;;;;;5091331;28;20107;-45
2022/05/18 06:43:54;;;;;;;6.20;2.10;;;25.80;52.00;;;;;;5091931;28;20476;-48
2022/05/18 06:46:22;;;;;;;5.32;1.98;;;25.90;49.40;;;;;;5093089;28;20028;-48
2022/05/18 06:48:48;;;;;;;7.25;2.35;;;26.10;48.10;;;;;;5092612;28;20035;-47
2022/05/18 06:51:20;;;;;;;5.72;2.30;;;26.20;47.40;;;;;;5092999;28;20053;-54
2022/05/18 06:53:47;;;;;;;5.70;1.88;;;26.10;48.00;;;;;;5092924;28;20476;-48
2022/05/18 06:56:14;;;;;;;5.97;1.80;;;26.20;52.10;;;;;;5092843;28;20495;-47
2022/05/18 06:58:39;;;;;;;5.38;1.90;;;26.10;47.00;;;;;;5092984;28;20036;-49
2022/05/18 07:01:07;;;;;;;7.28;2.17;;;26.30;49.30;;;;;;5092574;28;20384;-42
2022/05/18 07:03:33;;;;;;;5.78;2.05;;;26.50;48.50;;;;;;5087837;28;20036;-49
2022/05/18 07:05:59;;;;;;;6.30;2.13;;;26.40;45.90;;;;;;5087490;28;20031;-47
2022/05/18 07:08:25;;;;;;;5.82;2.10;;;26.50;46.30;;;;;;5092635;28;20047;-50
2022/05/18 07:10:51;;;;;;;7.18;2.20;;;26.70;48.80;;;;;;5092581;28;20427;-44
2022/05/18 07:13:17;;;;;;;13.02;2.38;;;26.70;46.80;;;;;;5092755;28;20027;-49
2022/05/18 07:15:46;;;;;;;7.95;2.60;;;26.20;47.60;;;;;;5092506;28;20412;-46
2022/05/18 07:18:13;;;;;;;7.65;2.70;;;25.60;47.40;;;;;;5092714;28;20507;-54
2022/05/18 07:20:39;;;;;;;7.80;2.30;;;25.10;47.90;;;;;;5091406;28;20027;-55
2022/05/18 07:23:05;;;;;;;6.85;2.60;;;24.80;51.50;;;;;;5091904;28;20131;-44
2022/05/18 07:25:30;;;;;;;8.30;2.55;;;24.70;53.50;;;;;;5087737;28;20107;-42
2022/05/18 07:27:56;;;;;;;7.97;2.70;;;24.80;53.80;;;;;;5089800;28;20038;-41
2022/05/18 07:30:22;;;;;;;6.53;2.30;;;24.90;50.70;;;;;;5091520;28;20020;-51
2022/05/18 07:32:47;;;;;;;6.68;2.38;;;24.80;50.00;;;;;;5091897;28;20107;-55
2022/05/18 07:35:13;;;;;;;7.43;2.40;;;24.30;52.80;;;;;;5092096;28;20362;-40
2022/05/18 07:37:39;;;;;;;7.85;2.55;;;24.10;54.70;;;;;;5091897;28;20381;-41
2022/05/18 07:40:06;;;;;;;9.57;4.90;;;24.00;54.50;;;;;;5092067;28;20047;-41
2022/05/18 07:42:33;;;;;;;9.52;2.50;;;24.20;54.70;;;;;;5090549;28;20028;-42
2022/05/18 07:44:58;;;;;;;7.68;2.25;;;24.50;54.90;;;;;;5094371;28;20389;-55
2022/05/18 07:47:32;;;;;;;7.93;2.40;;;25.00;54.20;;;;;;5091447;28;20476;-44
2022/05/18 07:49:57;;;;;;;7.18;2.22;;;25.20;51.60;;;;;;5091558;28;20377;-45
2022/05/18 07:52:24;;;;;;;6.80;2.08;;;25.40;51.00;;;;;;5091579;28;20023;-49
2022/05/18 07:54:50;;;;;;;7.45;2.28;;;25.80;52.60;;;;;;5091851;28;20023;-49
2022/05/18 07:57:17;;;;;;;6.78;2.28;;;26.10;48.90;;;;;;5092086;28;20055;-48
2022/05/18 07:59:44;;;;;;;7.82;2.20;;;26.30;49.90;;;;;;5091917;28;20132;-45
2022/05/18 08:02:09;;;;;;;6.25;1.75;;;26.30;47.40;;;;;;5091046;28;20043;-54
2022/05/18 08:04:35;;;;;;;5.13;1.80;;;25.80;50.60;;;;;;5091691;28;20020;-49
2022/05/18 08:07:01;;;;;;;8.77;1.95;;;26.10;51.60;;;;;;5091712;28;20401;-55
2022/05/18 08:09:27;;;;;;;7.97;2.10;;;26.60;50.10;;;;;;5091373;28;20020;-58
2022/05/18 08:17:23;;;;;;;5.97;2.10;;;26.20;47.50;;;;;;5091135;28;20069;-52
2022/05/18 08:19:49;;;;;;;7.60;2.15;;;24.80;48.20;;;;;;5091120;28;20439;-54
2022/05/18 08:22:17;;;;;;;6.35;2.00;;;24.40;54.60;;;;;;5091029;28;20047;-50
2022/05/18 08:24:42;;;;;;;7.53;2.00;;;24.40;54.60;;;;;;5091234;28;20016;-47
2022/05/18 08:27:15;;;;;;;6.63;2.20;;;24.20;55.30;;;;;;5091195;28;20030;-51
2022/05/18 08:29:41;;;;;;;7.13;2.28;;;24.20;54.20;;;;;;5091258;28;20052;-51
2022/05/18 08:32:07;;;;;;;8.40;2.25;;;24.20;55.20;;;;;;5091267;28;20055;-59
2022/05/18 08:34:33;;;;;;;7.78;2.20;;;24.10;56.90;;;;;;5091329;28;20032;-63
2022/05/18 08:37:00;;;;;;;5.85;1.52;;;24.40;56.10;;;;;;5091078;28;20036;-51
2022/05/18 08:39:26;;;;;;;8.75;1.95;;;24.80;55.70;;;;;;5091091;28;20036;-56
2022/05/18 08:41:53;;;;;;;6.95;1.92;;;25.00;53.00;;;;;;5091273;28;20352;-53
2022/05/18 08:44:31;;;;;;;7.53;2.33;;;24.90;54.50;;;;;;5091229;28;20050;-50
2022/05/18 08:47:27;;;;;;;9.95;2.22;;;25.10;56.40;;;;;;5090829;28;20035;-59
2022/05/18 08:50:00;;;;;;;8.35;2.15;;;25.80;51.00;;;;;;5091159;28;20062;-51
2022/05/18 08:53:03;;;;;;;6.93;2.03;;;26.70;49.50;;;;;;5089479;28;20024;-55
2022/05/18 08:55:41;;;;;;;6.72;1.80;;;26.90;49.60;;;;;;5090574;28;20047;-50
2022/05/18 08:58:38;;;;;;;10.10;1.80;;;26.70;47.20;;;;;;5089901;28;20494;-44
2022/05/18 09:01:35;;;;;;;6.78;2.03;;;26.60;47.30;;;;;;5089223;28;20052;-53
2022/05/18 09:04:09;;;;;;;6.68;2.20;;;26.70;48.30;;;;;;5089901;28;20055;-46
2022/05/18 09:06:47;;;;;;;8.63;2.05;;;26.70;49.10;;;;;;5076277;28;20031;-49
2022/05/18 09:12:06;;;;;;;7.05;1.75;;;26.90;47.70;;;;;;5089848;28;20035;-51
2022/05/18 09:14:40;;;;;;;8.40;1.83;;;27.20;48.10;;;;;;5093461;28;20024;-48
2022/05/18 09:17:15;;;;;;;7.70;1.85;;;27.60;47.00;;;;;;5095208;28;20028;-46
2022/05/18 09:20:12;;;;;;;9.23;1.88;;;27.80;45.20;;;;;;5094955;28;20059;-48
2022/05/18 09:22:56;;;;;;;8.55;1.90;;;27.90;44.70;;;;;;5094836;28;20036;-51
2022/05/18 09:25:24;;;;;;;6.25;1.80;;;28.10;48.90;;;;;;5074722;28;20094;-48
2022/05/18 09:28:00;;;;;;;7.13;1.98;;;28.50;43.60;;;;;;5093310;28;20024;-49
2022/05/18 09:30:50;;;;;;;11.07;2.10;;;28.70;44.70;;;;;;5094958;28;20032;-53
2022/05/18 09:33:44;;;;;;;6.07;1.70;;;28.70;43.50;;;;;;5094410;28;20496;-55
2022/05/18 09:36:10;;;;;;;7.15;1.90;;;28.70;43.10;;;;;;5094345;28;20055;-46
2022/05/18 09:39:02;;;;;;;6.28;2.22;;;29.00;44.70;;;;;;5094064;28;20079;-46
2022/05/18 09:41:44;;;;;;;5.85;1.70;;;29.30;43.70;;;;;;5094405;28;20040;-45
2022/05/18 09:44:26;;;;;;;5.97;2.00;;;29.10;41.50;;;;;;5094538;28;20043;-50
2022/05/18 09:46:52;;;;;;;6.15;1.67;;;29.30;42.90;;;;;;5094361;28;20028;-51
2022/05/18 09:49:26;;;;;;;5.75;1.75;;;28.90;41.60;;;;;;5094280;28;20031;-58
2022/05/18 09:51:55;;;;;;;6.50;1.63;;;28.30;43.00;;;;;;5093366;28;20020;-54
2022/05/18 09:54:21;;;;;;;8.00;1.80;;;27.70;44.20;;;;;;5093836;28;20499;-45
2022/05/18 09:56:59;;;;;;;6.63;1.48;;;27.80;45.10;;;;;;5093665;28;20024;-51
2022/05/18 09:59:35;;;;;;;5.93;1.90;;;27.90;41.10;;;;;;5092203;28;20048;-53
2022/05/18 10:07:51;;;;;;;6.55;1.50;;;28.20;45.20;;;;;;5077712;28;20394;-49
2022/05/18 10:10:30;;;;;;;5.15;1.33;;;28.20;45.00;;;;;;5071639;28;20405;-49
2022/05/18 10:12:58;;;;;;;6.97;1.90;;;28.30;46.10;;;;;;5089083;28;20099;-54
2022/05/18 10:15:24;;;;;;;5.18;1.45;;;28.40;43.90;;;;;;5093684;28;20057;-56
2022/05/18 10:17:53;;;;;;;6.55;1.42;;;28.60;42.30;;;;;;5092907;28;20145;-51
2022/05/18 10:20:26;;;;;;;6.65;1.13;;;28.40;41.30;;;;;;5093671;28;20059;-58
2022/05/18 10:22:54;;;;;;;5.97;1.30;;;28.30;42.80;;;;;;5093375;28;20066;-48
2022/05/18 10:25:47;;;;;;;8.68;1.63;;;28.30;44.90;;;;;;5092859;28;20032;-46
2022/05/18 10:28:21;;;;;;;7.43;1.75;;;27.00;46.50;;;;;;5093566;28;20044;-45
2022/05/18 10:31:02;;;;;;;6.32;1.40;;;26.70;45.40;;;;;;5093442;28;20039;-59
2022/05/18 10:33:39;;;;;;;5.10;1.40;;;27.00;47.30;;;;;;5093402;28;20030;-45
2022/05/18 10:36:13;;;;;;;5.93;1.20;;;27.30;48.60;;;;;;5093377;28;20055;-59
2022/05/18 10:38:53;;;;;;;4.07;1.25;;;27.60;49.40;;;;;;5093323;28;20119;-61
2022/05/18 10:41:24;;;;;;;4.60;1.20;;;27.90;45.30;;;;;;5093085;28;20101;-57
2022/05/18 10:44:08;;;;;;;4.35;1.23;;;28.00;43.30;;;;;;5093451;28;20058;-60
2022/05/18 10:46:37;;;;;;;4.80;1.08;;;28.10;42.00;;;;;;5093387;28;20477;-52
2022/05/18 10:49:10;;;;;;;7.53;0.93;;;28.10;40.30;;;;;;5092098;28;20024;-51
2022/05/18 10:51:38;;;;;;;6.90;1.52;;;27.90;41.50;;;;;;5091082;28;20031;-54
2022/05/18 10:54:27;;;;;;;7.05;1.27;;;27.90;42.20;;;;;;5088468;28;20029;-50
2022/05/18 10:56:54;;;;;;;;;;;27.90;44.30;;;;;;5089603;28;20024;-48
2022/05/18 10:59:33;;;;;;;3.97;1.20;;;27.90;44.40;;;;;;5092040;28;19915;-54
2022/05/18 11:02:21;;;;;;;6.55;1.33;;;28.00;41.80;;;;;;5092757;28;20039;-46
2022/05/18 11:04:58;;;;;;;7.73;1.40;;;26.90;36.00;;;;;;5071266;28;20036;-53
2022/05/18 11:07:27;;;;;;;4.30;1.33;;;27.00;42.40;;;;;;5072868;28;20039;-54
2022/05/18 11:09:53;;;;;;;3.67;1.13;;;26.70;40.30;;;;;;5074950;28;20113;-52
2022/05/18 11:12:41;;;;;;;5.68;1.23;;;26.60;39.50;;;;;;5092649;28;20032;-47
2022/05/18 11:15:33;;;;;;;4.10;1.48;;;26.70;40.10;;;;;;5091734;28;20526;-52
2022/05/18 11:18:16;;;;;;;6.22;1.50;;;26.70;44.40;;;;;;5091385;28;20270;-54
2022/05/18 11:21:12;;;;;;;6.57;1.40;;;26.90;44.80;;;;;;5092676;28;20088;-50
2022/05/18 11:24:16;;;;;;;7.22;1.60;;;26.90;44.70;;;;;;5092208;28;20047;-45
2022/05/18 11:26:55;;;;;;;6.93;1.42;;;27.10;41.90;;;;;;5092398;28;20473;-57
2022/05/18 11:29:38;;;;;;;;;;;27.20;42.60;;;;;;5092829;28;20485;-54
2022/05/18 11:32:39;;;;;;;5.28;1.35;;;27.10;41.50;;;;;;5092551;28;19911;-55
2022/05/18 11:35:14;;;;;;;5.90;1.23;;;27.10;41.50;;;;;;5083372;28;20408;-40
2022/05/18 11:38:03;;;;;;;6.57;1.33;;;26.90;43.50;;;;;;5091907;28;20048;-46
2022/05/18 11:40:50;;;;;;;9.57;1.35;;;27.20;41.40;;;;;;5090879;28;20047;-42
2022/05/18 11:43:28;;;;;;;5.68;1.33;;;27.40;44.00;;;;;;5092091;28;20032;-43
2022/05/18 11:46:31;;;;;;;10.10;1.60;;;27.20;39.50;;;;;;5092041;28;20107;-39
2022/05/18 11:49:29;;;;;;;6.28;1.35;;;27.00;39.80;;;;;;5092163;28;20024;-44
2022/05/18 11:52:34;;;;;;;8.23;1.65;;;26.80;40.20;;;;;;5091989;28;20111;-46
2022/05/18 11:55:44;;;;;;;5.70;1.33;;;26.70;42.30;;;;;;5092075;28;20032;-49
2022/05/18 11:58:26;;;;;;;4.85;1.35;;;26.10;41.00;;;;;;5090557;28;20485;-43
2022/05/18 12:01:05;;;;;;;6.80;1.50;;;26.30;44.30;;;;;;5090245;28;20020;-51
2022/05/18 12:03:58;;;;;;;8.32;1.33;;;26.40;45.60;;;;;;5090955;28;20028;-44
2022/05/18 12:06:40;;;;;;;5.30;1.17;;;26.50;44.60;;;;;;5091536;28;20039;-51
2022/05/18 12:09:08;;;;;;;6.18;1.27;;;26.30;40.40;;;;;;5091331;28;20111;-51
2022/05/18 12:11:37;;;;;;;5.07;1.13;;;26.20;43.80;;;;;;5090200;28;20068;-41
2022/05/18 12:14:14;;;;;;;9.05;1.17;;;26.00;41.70;;;;;;5091610;28;20024;-54
2022/05/18 12:16:57;;;;;;;4.18;1.08;;;25.90;43.40;;;;;;5091449;28;20028;-50
2022/05/18 12:19:38;;;;;;;8.13;1.15;;;25.90;42.90;;;;;;5091533;28;20066;-46
2022/05/18 12:22:20;;;;;;;4.18;1.00;;;25.90;43.60;;;;;;5091608;28;20043;-48
2022/05/18 12:24:47;;;;;;;5.63;1.27;;;25.80;41.60;;;;;;5079559;28;20024;-54
2022/05/18 12:27:15;;;;;;;4.53;1.13;;;25.40;41.50;;;;;;5070627;28;20029;-53
2022/05/18 12:29:43;;;;;;;7.23;1.40;;;25.20;41.70;;;;;;5089820;28;20030;-52
2022/05/18 12:32:11;;;;;;;6.43;1.42;;;25.00;42.00;;;;;;5093502;28;20516;-42
2022/05/18 12:34:43;;;;;;;7.10;1.40;;;24.90;44.50;;;;;;5090435;28;20484;-46
2022/05/18 12:37:14;;;;;;;5.45;1.10;;;24.80;44.80;;;;;;5090951;28;20506;-46
2022/05/18 12:40:06;;;;;;;5.65;1.00;;;24.90;44.40;;;;;;5090355;28;20056;-53
2022/05/18 12:42:38;;;;;;;6.82;1.27;;;24.40;37.70;;;;;;5090642;28;20062;-50
2022/05/18 12:45:26;;;;;;;6.43;1.30;;;24.40;42.90;;;;;;5089400;28;20108;-44
2022/05/18 12:48:17;;;;;;;3.85;1.08;;;24.40;42.80;;;;;;5090096;28;20679;-50
2022/05/18 12:50:55;;;;;;;3.10;1.00;;;24.50;44.20;;;;;;5090669;28;20426;-50
2022/05/18 12:53:24;;;;;;;6.72;1.33;;;24.60;42.70;;;;;;5089618;28;20024;-45
2022/05/18 12:55:56;;;;;;;;;;;24.80;44.80;;;;;;5090941;28;20073;-46
2022/05/18 12:58:29;;;;;;;5.53;1.15;;;25.00;44.70;;;;;;5090878;28;19912;-55
2022/05/18 13:01:06;;;;;;;5.88;1.33;;;25.00;39.40;;;;;;5091234;28;20026;-59
2022/05/18 13:03:44;;;;;;;4.18;1.25;;;25.00;41.70;;;;;;5091092;28;20043;-59
2022/05/18 13:06:16;;;;;;;5.20;1.23;;;24.90;41.10;;;;;;5091008;28;20022;-42
2022/05/18 13:08:58;;;;;;;5.65;1.20;;;24.70;43.60;;;;;;5090531;28;20351;-47
2022/05/18 13:11:32;;;;;;;3.80;0.90;;;24.00;41.20;;;;;;5090813;28;20124;-53
2022/05/18 13:14:00;;;;;;;4.93;1.08;;;23.80;43.00;;;;;;5090499;28;20016;-57
2022/05/18 13:16:38;;;;;;;4.30;0.97;;;24.10;42.10;;;;;;5089611;28;20064;-56
2022/05/18 13:19:20;;;;;;;8.73;1.20;;;24.30;41.60;;;;;;5090938;28;20032;-49
2022/05/18 13:21:53;;;;;;;5.57;1.10;;;24.40;38.10;;;;;;5090801;28;20038;-52
2022/05/18 13:24:26;;;;;;;4.60;1.13;;;24.40;37.70;;;;;;5090835;28;20028;-48